Latest Weather Observations for Scone Airport

IDN60801

Issued at 9:02 pm EDT Tuesday 21 February 2017 (issued every 30 minutes, with the page automatically refreshed every 10 minutes)

About weather observations | Map of weather stations | Latest weather observations for NSW | Other Formats
Station Details ID: 061363 Name: SCONE AIRPORT AWS Lat: -32.03 Lon: 150.83 Height: 221.4 m
Data from the previous 72 hours. | See also: Recent months at Scone Airport
Date/Time
EDT
Temp
°C
App
Temp
°C
Dew
Point
°C
Rel
Hum
%
Delta-T
°C
Wind Press
QNH
hPa
Press
MSL
hPa
Rain since
9am
mm
Dir  Spd
km/h
Gust
km/h
Spd
kts
Gust
kts
21/09:00pm 23.3 21.2 13.5 54 5.7 S 17 19 9 10 1018.4 1017.3 0.0
21/08:30pm 24.0 21.4 13.2 50 6.3 S 19 24 10 13 1017.8 1016.7 0.0
21/08:00pm 25.1 22.3 13.3 48 6.9 S 20 28 11 15 1017.1 1016.0 0.0
21/07:30pm 26.7 22.6 12.7 42 8.2 SSE 26 33 14 18 1016.4 1015.4 0.0
21/07:00pm 28.0 24.1 12.0 37 9.3 SSE 24 32 13 17 1016.1 1015.1 0.0
21/06:30pm 29.6 25.3 9.2 28 11.5 SSE 22 33 12 18 1015.6 1014.6 0.0
21/06:00pm 31.0 26.5 2.3 16 14.5 SE 15 20 8 11 1015.3 1014.2 0.0
21/05:30pm 31.1 26.5 1.4 15 14.8 SSE 15 22 8 12 1015.2 1014.1 0.0
21/05:00pm 31.8 28.7 0.0 13 15.5 NNE 6 15 3 8 1015.2 1014.1 0.0
21/04:30pm 31.3 26.8 -0.4 13 15.3 ESE 13 20 7 11 1015.2 1014.1 0.0
21/04:00pm 32.0 27.3 1.2 14 15.4 SSE 15 32 8 17 1015.4 1014.3 0.0
21/03:30pm 30.6 25.8 0.1 14 14.8 SSW 15 26 8 14 1015.6 1014.6 0.0
21/03:00pm 30.6 26.8 1.9 16 14.3 ENE 11 20 6 11 1015.8 1014.8 0.0
21/02:30pm 31.6 27.4 1.8 15 15.0 WSW 13 22 7 12 1016.2 1015.2 0.0
21/02:00pm 29.9 26.4 1.4 16 14.1 WNW 9 19 5 10 1016.9 1015.8 0.0
21/01:30pm 29.0 25.5 1.5 17 13.5 NNW 9 17 5 9 1017.3 1016.2 0.0
21/01:00pm 28.2 24.6 0.9 17 13.2 NNW 9 17 5 9 1017.9 1016.8 0.0
21/12:30pm 26.8 23.5 2.7 21 11.9 SSW 9 19 5 10 1018.3 1017.2 0.0
21/12:00pm 26.3 24.2 5.8 27 10.7 WSW 6 11 3 6 1018.9 1017.8 0.0
21/11:30am 24.7 21.5 5.0 28 10.0 SSW 11 19 6 10 1019.2 1018.1 0.0
21/11:00am 23.4 20.7 5.8 32 9.0 SSW 9 15 5 8 1019.4 1018.3 0.0
21/10:30am 22.4 19.5 6.6 36 8.2 SE 11 17 6 9 1019.6 1018.6 0.0
21/10:00am 21.0 17.7 6.5 39 7.4 S 13 17 7 9 1019.6 1018.6 0.0
21/09:30am 20.0 18.5 6.7 42 6.8 SE 4 9 2 5 1019.5 1018.5 0.0
21/09:00am 18.5 17.2 6.0 44 6.2 ESE 2 7 1 4 1019.4 1018.3 0.0
21/08:30am 16.1 15.0 6.8 54 4.6 ESE 2 6 1 3 1018.9 1017.8 0.0
21/08:00am 13.5 11.9 6.4 62 3.4 SE 4 7 2 4 1018.6 1017.5 0.0
21/07:30am 10.2 8.7 4.8 69 2.5 W 2 6 1 3 1018.4 1017.3 0.0
21/07:00am 9.2 8.3 5.9 80 1.5 CALM 0 0 0 0 1017.8 1016.7 0.0
21/06:30am 8.3 7.1 4.5 77 1.7 CALM 0 0 0 0 1017.6 1016.5 0.0
21/06:00am 8.6 7.4 4.6 76 1.8 CALM 0 0 0 0 1017.5 1016.4 0.0
21/05:30am 9.1 7.9 4.7 74 2.0 CALM 0 0 0 0 1016.9 1015.8 0.0
21/05:00am 9.2 7.9 4.0 70 2.3 CALM 0 0 0 0 1016.8 1015.7 0.0
21/04:30am 9.7 8.4 4.1 68 2.5 CALM 0 0 0 0 1016.4 1015.4 0.0
21/04:00am 10.0 8.7 4.2 67 2.6 CALM 0 0 0 0 1016.1 1015.1 0.0
21/03:30am 10.9 9.8 5.2 68 2.6 CALM 0 0 0 0 1016.0 1015.0 0.0
21/03:00am 10.3 8.9 3.8 64 2.9 CALM 0 0 0 0 1016.2 1015.2 0.0
21/02:30am 10.9 9.3 4.6 65 2.9 WNW 2 7 1 4 1016.1 1015.1 0.0
21/02:00am 11.5 10.6 6.2 70 2.5 CALM 0 4 0 2 1016.1 1015.1 0.0
21/01:30am 12.4 11.4 5.8 64 3.1 CALM 0 0 0 0 1016.2 1015.2 0.0
21/01:00am 13.5 11.1 4.1 53 4.3 WNW 6 7 3 4 1016.0 1015.0 0.0
21/12:30am 14.4 12.1 4.7 52 4.6 WNW 6 7 3 4 1016.1 1015.1 0.0
21/12:00am 15.1 13.2 4.8 50 4.9 N 4 7 2 4 1015.8 1014.8 0.0
 
Date/Time
EDT
Temp
°C
App
Temp
°C
Dew
Point
°C
Rel
Hum
%
Delta-T
°C
Wind Press
QNH
hPa
Press
MSL
hPa
Rain since
9am
mm
Dir  Spd
km/h
Gust
km/h
Spd
kts
Gust
kts
20/11:30pm 16.6 14.3 4.6 45 5.7 ESE 6 11 3 6 1015.6 1014.6 0.0
20/11:00pm 16.1 13.6 4.8 47 5.4 ENE 7 13 4 7 1015.4 1014.3 0.0
20/10:30pm 16.8 14.4 2.4 38 6.6 W 4 9 2 5 1015.0 1013.9 0.0
20/10:28pm 17.2 15.1 2.0 36 6.9 W 2 9 1 5 1015.0 1013.9 0.0
20/10:00pm 22.4 18.5 -1.6 20 10.6 WNW 9 19 5 10 1014.7 1013.6 0.0
20/09:30pm 20.7 18.1 1.1 27 9.0 SSE 4 15 2 8 1014.3 1013.2 0.0
20/09:00pm 22.1 18.9 0.6 24 9.9 E 7 9 4 5 1013.8 1012.7 0.0
20/08:30pm 20.8 18.7 1.6 28 8.9 ENE 2 7 1 4 1013.3 1012.2 0.0
20/08:00pm 22.4 20.6 0.9 24 10.0 CALM 0 0 0 0 1012.6 1011.5 0.0
20/07:30pm 24.8 20.3 -0.4 19 11.6 WSW 13 17 7 9 1012.0 1010.9 0.0
20/07:00pm 27.0 21.4 -0.1 17 12.8 W 19 24 10 13 1011.3 1010.2 0.0
20/06:30pm 27.9 22.1 -0.2 16 13.3 WSW 20 24 11 13 1010.9 1009.8 0.0
20/06:00pm 28.6 22.7 -0.5 15 13.8 W 20 28 11 15 1010.6 1009.5 0.0
20/05:30pm 29.2 22.8 0.8 16 13.8 WSW 24 33 13 18 1010.3 1009.2 0.0
20/05:00pm 29.9 24.2 -0.5 14 14.5 W 19 30 10 16 1010.2 1009.1 0.0
20/04:30pm 29.5 22.5 -0.8 14 14.4 W 26 37 14 20 1010.1 1009.0 0.0
20/04:00pm 28.6 23.3 -0.5 15 13.8 W 17 32 9 17 1009.9 1008.8 0.0
20/03:30pm 28.3 21.6 -0.8 15 13.7 WNW 24 44 13 24 1010.2 1009.1 0.0
20/03:00pm 28.0 20.9 -1.0 15 13.6 WNW 26 39 14 21 1010.4 1009.3 0.0
20/02:30pm 27.6 22.8 0.4 17 13.0 W 15 28 8 15 1010.7 1009.6 0.0
20/02:00pm 27.3 21.7 0.9 18 12.7 NW 20 37 11 20 1011.2 1010.1 0.0
20/01:30pm 27.5 21.4 2.6 20 12.4 W 24 37 13 20 1011.3 1010.2 0.0
20/01:00pm 26.4 20.1 1.7 20 12.0 W 24 37 13 20 1011.7 1010.7 0.0
20/12:30pm 25.4 19.7 0.8 20 11.6 W 20 37 11 20 1012.2 1011.1 0.0
20/12:00pm 25.1 19.7 2.5 23 11.0 WNW 20 33 11 18 1012.6 1011.5 0.0
20/11:30am 23.0 18.0 1.4 24 10.2 WNW 17 33 9 18 1013.0 1011.9 0.0
20/11:00am 23.1 17.4 2.6 26 9.9 W 22 35 12 19 1013.2 1012.1 0.0
20/10:30am 21.9 17.1 2.6 28 9.2 WNW 17 30 9 16 1013.2 1012.1 0.0
20/10:00am 21.5 16.0 1.7 27 9.3 WNW 20 28 11 15 1013.3 1012.2 0.0
20/09:30am 20.7 15.8 2.0 29 8.7 NW 17 26 9 14 1013.2 1012.1 0.0
20/09:00am 20.1 16.4 2.5 31 8.3 WNW 11 22 6 12 1013.1 1012.0 0.8
20/08:30am 19.2 15.1 2.1 32 7.9 WNW 13 19 7 10 1012.9 1011.8 0.8
20/08:00am 16.4 13.7 3.8 43 5.9 WNW 7 11 4 6 1012.7 1011.6 0.8
20/07:30am 14.7 12.4 4.7 51 4.7 NW 6 11 3 6 1012.5 1011.4 0.8
20/07:00am 12.9 10.2 2.5 49 4.6 NW 6 9 3 5 1012.3 1011.2 0.8
20/06:30am 12.1 10.2 2.8 53 4.1 N 2 6 1 3 1012.0 1010.9 0.8
20/06:00am 13.6 9.4 1.9 45 5.2 W 13 17 7 9 1011.5 1010.5 0.8
20/05:30am 15.2 11.1 2.4 42 5.8 WNW 13 19 7 10 1011.1 1010.0 0.8
20/05:00am 15.6 12.5 1.4 38 6.3 NW 7 11 4 6 1010.5 1009.4 0.8
20/04:30am 13.6 12.1 3.1 49 4.7 CALM 0 7 0 4 1010.1 1009.0 0.8
20/04:00am 14.8 12.2 3.3 46 5.3 NNE 6 9 3 5 1009.8 1008.7 0.8
20/03:30am 16.4 13.5 1.3 36 6.7 NNE 6 11 3 6 1009.5 1008.4 0.8
20/03:00am 16.0 13.4 1.0 36 6.6 NNW 4 7 2 4 1009.4 1008.3 0.8
20/02:30am 17.3 14.6 0.5 32 7.4 N 4 7 2 4 1009.6 1008.5 0.8
20/02:00am 18.9 15.5 -0.5 27 8.5 NNW 7 15 4 8 1009.2 1008.1 0.8
20/01:30am 19.8 16.0 -0.8 25 9.0 WNW 9 17 5 9 1008.9 1007.8 0.8
20/01:00am 21.1 16.2 -0.8 23 9.7 W 15 22 8 12 1008.7 1007.6 0.8
20/12:30am 22.0 16.0 -1.3 21 10.3 WNW 20 28 11 15 1008.6 1007.5 0.8
20/12:00am 22.5 17.1 -1.6 20 10.7 WNW 17 24 9 13 1008.3 1007.2 0.8
 
Date/Time
EDT
Temp
°C
App
Temp
°C
Dew
Point
°C
Rel
Hum
%
Delta-T
°C
Wind Press
QNH
hPa
Press
MSL
hPa
Rain since
9am
mm
Dir  Spd
km/h
Gust
km/h
Spd
kts
Gust
kts
19/11:30pm 22.9 17.0 -1.9 19 10.9 WNW 19 28 10 15 1008.1 1007.0 0.8
19/11:00pm 23.4 16.6 -2.2 18 11.3 WNW 24 33 13 18 1007.6 1006.5 0.8
19/10:30pm 24.2 16.1 -3.2 16 11.9 W 30 43 16 23 1007.6 1006.5 0.8
19/10:00pm 24.6 17.6 -3.7 15 12.3 W 24 37 13 20 1007.3 1006.1 0.8
19/09:30pm 25.1 18.2 -2.5 16 12.3 W 24 35 13 19 1007.0 1005.9 0.8
19/09:00pm 25.8 19.8 -1.9 16 12.6 W 20 28 11 15 1006.3 1005.2 0.8
19/08:30pm 25.8 20.3 0.5 19 11.9 W 19 26 10 14 1005.5 1004.4 0.8
19/08:00pm 26.4 20.9 0.9 19 12.2 W 19 28 10 15 1005.4 1004.3 0.8
19/07:30pm 25.6 25.7 14.4 50 6.7 NNW 7 11 4 6 1005.4 1004.3 0.8
19/07:00pm 26.3 25.0 14.7 48 7.0 NNE 15 24 8 13 1004.9 1003.8 0.8
19/06:30pm 26.5 26.1 16.1 52 6.4 N 13 20 7 11 1004.3 1003.2 0.8
19/06:00pm 27.4 26.8 16.7 52 6.7 NNE 15 28 8 15 1003.9 1002.8 0.8
19/05:30pm 26.2 24.8 15.6 52 6.5 NE 17 22 9 12 1003.8 1002.7 0.8
19/05:00pm 26.5 26.8 17.0 56 6.0 NE 11 17 6 9 1004.3 1003.2 0.8
19/04:30pm 27.0 26.9 17.8 57 5.9 ENE 15 19 8 10 1004.9 1003.8 0.8
19/04:00pm 26.7 27.3 16.9 55 6.2 S 9 20 5 11 1005.1 1004.0 0.8
19/03:30pm 24.6 25.5 18.3 68 4.0 SE 11 15 6 8 1005.7 1004.6 0.8
19/03:00pm 23.7 24.5 19.8 79 2.5 SE 15 17 8 9 1006.0 1004.9 0.8
19/02:30pm 24.4 23.8 17.6 66 4.3 SSE 17 22 9 12 1006.5 1005.4 0.0
19/02:00pm 23.8 23.6 18.4 72 3.4 SSE 17 24 9 13 1006.4 1005.3 0.0
19/01:30pm 24.7 24.2 17.9 66 4.3 SSE 17 22 9 12 1006.9 1005.8 0.0
19/01:00pm 23.9 22.3 17.4 67 4.1 S 22 26 12 14 1007.2 1006.0 0.0
19/12:30pm 25.1 23.8 18.1 65 4.4 SSE 22 26 12 14 1007.4 1006.2 0.0
19/12:00pm 25.9 26.7 18.1 62 5.0 SSW 11 20 6 11 1007.6 1006.5 0.0
19/11:30am 25.7 26.6 17.6 61 5.1 S 9 15 5 8 1007.7 1006.6 0.0
19/11:00am 26.0 27.2 18.2 62 5.0 ESE 9 13 5 7 1007.8 1006.7 0.0
19/10:30am 25.1 26.6 17.6 63 4.7 SSE 6 11 3 6 1008.0 1006.9 0.0
19/10:00am 23.9 25.5 18.3 71 3.6 S 7 11 4 6 1008.1 1007.0 0.0
19/09:30am 23.2 24.6 18.7 76 2.9 S 9 15 5 8 1008.0 1006.9 0.0
19/09:00am 22.7 23.6 18.5 77 2.7 S 11 15 6 8 1007.9 1006.8 0.0
19/08:30am 22.4 23.9 18.8 80 2.3 SSE 9 13 5 7 1008.0 1006.9 0.0
19/08:00am 22.0 24.5 19.0 83 1.9 SE 4 13 2 7 1007.9 1006.8 0.0
19/07:30am 21.2 24.6 19.3 89 1.2 CALM 0 0 0 0 1007.7 1006.6 0.0
19/07:00am 21.0 24.4 19.3 90 1.1 CALM 0 0 0 0 1007.4 1006.2 0.0
19/06:30am 20.9 24.1 18.8 88 1.3 CALM 0 0 0 0 1007.2 1006.0 0.0
19/06:00am 20.8 24.0 18.9 89 1.2 CALM 0 0 0 0 1006.8 1005.7 0.0
19/05:30am 21.0 24.2 18.9 88 1.3 CALM 0 0 0 0 1006.5 1005.4 0.0
19/05:00am 20.7 22.6 19.0 90 1.1 NE 7 9 4 5 1006.3 1005.2 0.0
19/04:30am 21.2 24.5 19.1 88 1.3 CALM 0 0 0 0 1006.2 1005.1 0.0
19/04:00am 20.9 24.2 19.0 89 1.2 CALM 0 0 0 0 1006.2 1005.1 0.0
19/03:30am 20.5 22.4 18.6 89 1.2 NE 6 7 3 4 1006.2 1005.1 0.0
19/03:00am 20.6 23.9 19.1 91 1.0 CALM 0 0 0 0 1006.3 1005.2 0.0
19/02:30am 19.9 22.7 18.0 89 1.2 CALM 0 0 0 0 1006.0 1004.9 0.0
19/02:00am 20.4 23.3 18.2 87 1.4 CALM 0 0 0 0 1005.9 1004.8 0.0
19/01:30am 21.1 23.0 18.9 87 1.4 S 7 9 4 5 1006.3 1005.2 0.0
19/01:00am 21.0 22.4 18.6 86 1.5 SSW 9 15 5 8 1006.3 1005.2 0.0
19/12:30am 21.4 23.1 18.6 84 1.8 SSW 7 11 4 6 1006.5 1005.4 0.0
19/12:00am 21.9 22.8 18.5 81 2.2 S 11 13 6 7 1006.5 1005.4 0.0
 
Date/Time
EDT
Temp
°C
App
Temp
°C
Dew
Point
°C
Rel
Hum
%
Delta-T
°C
Wind Press
QNH
hPa
Press
MSL
hPa
Rain since
9am
mm
Dir  Spd
km/h
Gust
km/h
Spd
kts
Gust
kts
18/11:30pm 22.4 22.5 18.4 78 2.5 S 15 19 8 10 1006.1 1005.0 0.0
18/11:00pm 23.0 22.3 18.3 75 3.0 S 19 24 10 13 1006.2 1005.1 0.0
18/10:30pm 23.3 23.4 18.4 74 3.1 SSE 15 19 8 10 1006.1 1005.0 0.0
18/10:00pm 23.6 23.6 18.0 71 3.5 S 15 20 8 11 1005.7 1004.6 0.0
18/09:30pm 24.0 25.1 18.0 69 3.8 WSW 9 15 5 8 1006.1 1005.0 0.0

Other Formats:

Comma delimited format used in spreadsheet applications
http://www.bom.gov.au/fwo/IDN60801/IDN60801.95758.axf

JavaScript Object Notation format (JSON) in row-major order
http://www.bom.gov.au/fwo/IDN60801/IDN60801.95758.json